createdAt,value
2017-06-20T00:02:02.785Z,4.13
2017-06-20T00:04:36.597Z,4.63
2017-06-20T00:07:11.232Z,5.23
2017-06-20T00:09:45.152Z,4.10
2017-06-20T00:12:18.818Z,5.90
2017-06-20T00:14:52.432Z,4.70
2017-06-20T00:17:26.116Z,4.20
2017-06-20T00:19:59.765Z,4.67
2017-06-20T00:22:35.385Z,4.73
2017-06-20T00:25:09.172Z,4.07
2017-06-20T00:27:43.821Z,4.90
2017-06-20T00:30:17.678Z,4.07
2017-06-20T00:32:51.386Z,4.60
2017-06-20T00:35:25.700Z,5.80
2017-06-20T00:37:59.706Z,4.63
2017-06-20T00:40:33.323Z,5.07
2017-06-20T00:43:07.104Z,5.30
2017-06-20T00:45:41.624Z,4.10
2017-06-20T00:48:16.369Z,4.80
2017-06-20T00:50:50.797Z,4.77
2017-06-20T00:53:25.472Z,5.10
2017-06-20T00:55:59.569Z,4.83
2017-06-20T00:58:33.436Z,5.87
2017-06-20T01:01:07.956Z,5.00
2017-06-20T01:03:42.216Z,5.20
2017-06-20T01:06:15.848Z,4.90
2017-06-20T01:08:50.283Z,6.37
2017-06-20T01:11:24.094Z,4.80
2017-06-20T01:13:58.156Z,5.73
2017-06-20T01:16:32.566Z,5.70
2017-06-20T01:19:07.205Z,5.27
2017-06-20T01:21:41.894Z,5.33
2017-06-20T01:24:15.936Z,5.47
2017-06-20T01:26:49.652Z,6.07
2017-06-20T01:29:24.280Z,5.77
2017-06-20T01:31:58.141Z,5.73
2017-06-20T01:34:31.837Z,5.90
2017-06-20T01:37:06.261Z,5.77
2017-06-20T01:39:40.256Z,6.00
2017-06-20T01:42:15.624Z,5.73
2017-06-20T01:44:49.800Z,6.00
2017-06-20T01:47:23.486Z,6.50
2017-06-20T01:49:59.196Z,5.87
2017-06-20T01:52:33.705Z,6.20
2017-06-20T01:55:07.769Z,7.90
2017-06-20T01:57:41.469Z,5.83
2017-06-20T02:00:16.189Z,6.13
2017-06-20T02:02:50.306Z,6.43
2017-06-20T02:05:24.367Z,6.17
2017-06-20T02:07:57.961Z,6.40
2017-06-20T02:10:32.564Z,5.73
2017-06-20T02:13:06.366Z,5.93
2017-06-20T02:15:40.093Z,6.63
2017-06-20T02:18:13.873Z,5.70
2017-06-20T02:20:47.835Z,6.03
2017-06-20T02:23:21.625Z,6.30
2017-06-20T02:25:56.312Z,6.63
2017-06-20T02:28:31.097Z,6.57
2017-06-20T02:31:06.050Z,6.60
2017-06-20T02:33:40.021Z,6.50
2017-06-20T02:36:15.414Z,6.50
2017-06-20T02:38:49.248Z,6.93
2017-06-20T02:41:23.849Z,6.20
2017-06-20T02:43:57.757Z,6.43
2017-06-20T02:46:32.369Z,6.33
2017-06-20T02:49:06.185Z,6.27
2017-06-20T02:51:40.808Z,6.40
2017-06-20T02:54:14.722Z,6.87
2017-06-20T02:56:49.339Z,6.23
2017-06-20T02:59:23.352Z,7.20
2017-06-20T03:01:57.201Z,6.90
2017-06-20T03:04:30.905Z,6.77
2017-06-20T03:07:04.912Z,7.07
2017-06-20T03:09:38.684Z,7.43
2017-06-20T03:12:13.285Z,7.03
2017-06-20T03:14:47.145Z,6.87
2017-06-20T03:17:21.006Z,7.20
2017-06-20T03:19:54.728Z,8.33
2017-06-20T03:22:28.596Z,7.00
2017-06-20T03:25:02.333Z,6.97
2017-06-20T03:27:36.127Z,7.03
2017-06-20T03:30:09.841Z,7.13
2017-06-20T03:32:43.701Z,6.70
2017-06-20T03:35:17.421Z,7.00
2017-06-20T03:37:51.088Z,6.83
2017-06-20T03:40:25.550Z,8.23
2017-06-20T03:42:59.532Z,7.20
2017-06-20T03:45:33.982Z,7.67
2017-06-20T03:48:07.914Z,6.97
2017-06-20T03:50:42.404Z,7.13
2017-06-20T03:53:16.505Z,7.20
2017-06-20T03:55:50.937Z,6.83
2017-06-20T03:58:24.829Z,7.50
2017-06-20T04:00:58.581Z,6.50
2017-06-20T04:03:32.534Z,7.37
2017-06-20T04:06:07.000Z,7.40
2017-06-20T04:08:40.892Z,7.47
2017-06-20T04:11:14.573Z,7.30
2017-06-20T04:13:48.365Z,6.70
2017-06-20T04:16:22.077Z,6.97
2017-06-20T04:18:56.169Z,7.00
2017-06-20T04:21:36.146Z,11.00
2017-06-20T04:24:10.371Z,7.00
2017-06-20T04:26:44.108Z,7.07
2017-06-20T04:29:17.808Z,6.90
2017-06-20T04:31:52.210Z,7.33
2017-06-20T04:34:26.178Z,7.67
2017-06-20T04:36:59.985Z,8.10
2017-06-20T04:39:33.809Z,6.30
2017-06-20T04:42:07.405Z,7.77
2017-06-20T04:44:41.252Z,9.10
2017-06-20T04:47:15.656Z,8.07
2017-06-20T04:49:50.748Z,7.53
2017-06-20T04:52:24.545Z,7.80
2017-06-20T04:54:59.065Z,8.40
2017-06-20T04:57:33.022Z,7.40
2017-06-20T05:00:07.073Z,7.33
2017-06-20T05:02:41.577Z,7.63
2017-06-20T05:05:16.329Z,7.70
2017-06-20T05:07:50.240Z,6.80
2017-06-20T05:10:24.024Z,7.37
2017-06-20T05:12:58.635Z,7.10
2017-06-20T05:15:32.713Z,7.10
2017-06-20T05:18:06.380Z,8.70
2017-06-20T05:20:40.148Z,6.97
2017-06-20T05:23:14.572Z,7.30
2017-06-20T05:25:48.652Z,7.20
2017-06-20T05:28:22.412Z,8.93
2017-06-20T05:30:57.080Z,7.43
2017-06-20T05:33:31.069Z,7.23
2017-06-20T05:36:04.921Z,7.20
2017-06-20T05:38:38.609Z,14.60
2017-06-20T05:41:13.197Z,9.60
2017-06-20T05:43:47.900Z,6.73
2017-06-20T05:46:21.925Z,6.63
2017-06-20T05:48:55.840Z,7.90
2017-06-20T05:51:30.376Z,7.30
2017-06-20T05:54:04.173Z,7.43
2017-06-20T05:56:37.861Z,7.40
2017-06-20T05:59:11.681Z,7.67
2017-06-20T06:01:45.526Z,7.30
2017-06-20T06:04:19.141Z,7.60
2017-06-20T06:06:52.848Z,8.00
2017-06-20T06:09:26.448Z,6.80
2017-06-20T06:12:00.240Z,7.70
2017-06-20T06:14:34.797Z,8.20
2017-06-20T06:17:08.885Z,7.07
2017-06-20T06:19:43.456Z,7.30
2017-06-20T06:22:17.345Z,7.27
2017-06-20T06:24:51.189Z,6.43
2017-06-20T06:27:24.937Z,6.47
2017-06-20T06:29:58.706Z,7.00
2017-06-20T06:32:33.318Z,6.40
2017-06-20T06:35:07.794Z,6.63
2017-06-20T06:37:41.955Z,5.87
2017-06-20T06:40:16.321Z,6.30
2017-06-20T06:42:50.419Z,7.73
2017-06-20T06:45:24.856Z,5.87
2017-06-20T06:47:59.021Z,6.73
2017-06-20T06:50:32.730Z,6.30
2017-06-20T06:53:06.601Z,6.30
2017-06-20T06:55:40.152Z,5.80
2017-06-20T06:58:13.934Z,6.63
2017-06-20T07:00:47.538Z,6.97
2017-06-20T07:03:21.388Z,5.83
2017-06-20T07:05:55.094Z,6.47
2017-06-20T07:08:29.553Z,6.57
2017-06-20T07:11:03.521Z,7.00
2017-06-20T07:13:38.109Z,5.93
2017-06-20T07:16:12.101Z,6.53
2017-06-20T07:18:45.789Z,6.50
2017-06-20T07:21:19.409Z,6.63
2017-06-20T07:23:54.008Z,7.13
2017-06-20T07:26:27.865Z,6.60
2017-06-20T07:29:01.653Z,6.40
2017-06-20T07:31:36.038Z,6.87
2017-06-20T07:34:10.026Z,6.87
2017-06-20T07:36:43.686Z,6.20
2017-06-20T07:39:19.129Z,8.43
2017-06-20T07:41:53.606Z,6.53
2017-06-20T07:44:27.709Z,6.90
2017-06-20T07:47:01.401Z,7.13
2017-06-20T07:49:36.193Z,6.60
2017-06-20T07:52:10.177Z,6.60
2017-06-20T07:54:43.867Z,7.00
2017-06-20T07:57:17.508Z,7.30
2017-06-20T07:59:51.340Z,6.67
2017-06-20T08:02:25.809Z,7.50
2017-06-20T08:05:00.576Z,7.55
2017-06-20T08:07:34.296Z,6.70
2017-06-20T08:10:08.792Z,7.60
2017-06-20T08:12:42.852Z,6.87
2017-06-20T08:15:17.433Z,7.10
2017-06-20T08:17:51.338Z,7.60
2017-06-20T08:20:26.974Z,6.70
2017-06-20T08:23:00.740Z,6.60
2017-06-20T08:25:35.015Z,6.90
2017-06-20T08:28:08.658Z,6.50
2017-06-20T08:30:42.471Z,7.43
2017-06-20T08:33:17.721Z,7.60
2017-06-20T08:35:51.843Z,7.57
2017-06-20T08:38:26.358Z,7.73
2017-06-20T08:41:01.640Z,6.87
2017-06-20T08:43:35.622Z,7.40
2017-06-20T08:46:10.377Z,7.20
2017-06-20T08:48:44.172Z,7.20
2017-06-20T08:51:19.084Z,7.20
2017-06-20T08:53:52.812Z,6.60
2017-06-20T08:56:26.769Z,6.90
2017-06-20T08:59:02.031Z,7.87
2017-06-20T09:01:36.242Z,6.93
2017-06-20T09:04:09.896Z,8.53
2017-06-20T09:06:43.648Z,6.20
2017-06-20T09:09:17.352Z,6.10
2017-06-20T09:11:51.144Z,6.57
2017-06-20T09:14:24.812Z,6.07
2017-06-20T09:16:58.506Z,6.07
2017-06-20T09:19:33.180Z,6.83
2017-06-20T09:22:07.174Z,4.90
2017-06-20T09:24:40.797Z,5.90
2017-06-20T09:27:15.365Z,7.33
2017-06-20T09:29:49.384Z,4.73
2017-06-20T09:32:23.997Z,4.53
2017-06-20T09:34:58.592Z,6.93
2017-06-20T09:37:32.784Z,5.87
2017-06-20T09:40:06.442Z,4.67
2017-06-20T09:42:40.201Z,5.53
2017-06-20T09:45:14.876Z,5.43
2017-06-20T09:47:48.741Z,10.83
2017-06-20T09:50:22.641Z,5.00
2017-06-20T09:52:56.424Z,4.97
2017-06-20T09:55:30.189Z,4.37
2017-06-20T09:58:04.205Z,4.40
2017-06-20T10:00:38.425Z,4.87
2017-06-20T10:03:12.205Z,4.20
2017-06-20T10:05:45.928Z,5.47
2017-06-20T10:08:19.759Z,5.30
2017-06-20T10:10:53.433Z,3.73
2017-06-20T10:13:27.297Z,3.90
2017-06-20T10:16:01.834Z,5.87
2017-06-20T10:18:35.909Z,5.63
2017-06-20T10:21:10.266Z,3.50
2017-06-20T10:23:44.265Z,3.97
2017-06-20T10:26:17.976Z,4.50
2017-06-20T10:28:51.825Z,4.00
2017-06-20T10:31:26.302Z,4.03
2017-06-20T10:34:02.734Z,3.50
2017-06-20T10:36:37.249Z,3.80
2017-06-20T10:39:11.085Z,4.30
2017-06-20T10:41:44.853Z,4.80
2017-06-20T10:44:18.581Z,4.83
2017-06-20T10:46:53.154Z,6.30
2017-06-20T10:49:27.160Z,4.90
2017-06-20T10:52:00.764Z,3.90
2017-06-20T10:54:34.656Z,7.23
2017-06-20T10:57:08.369Z,4.57
2017-06-20T10:59:42.277Z,4.30
2017-06-20T11:02:15.901Z,9.20
2017-06-20T11:04:49.844Z,6.60
2017-06-20T11:07:23.608Z,3.87
2017-06-20T11:09:58.157Z,6.70
2017-06-20T11:12:32.729Z,3.80
2017-06-20T11:15:06.741Z,3.70
2017-06-20T11:17:41.165Z,3.57
2017-06-20T11:20:16.197Z,3.70
2017-06-20T11:22:50.721Z,4.37
2017-06-20T11:25:25.589Z,3.80
2017-06-20T11:28:00.074Z,3.80
2017-06-20T11:30:34.249Z,4.03
2017-06-20T11:33:08.608Z,3.17
2017-06-20T11:35:42.584Z,3.57
2017-06-20T11:38:16.225Z,4.70
2017-06-20T11:40:50.121Z,3.70
2017-06-20T11:43:23.881Z,3.60
2017-06-20T11:45:57.817Z,15.93
2017-06-20T11:48:31.585Z,3.53
2017-06-20T11:51:05.489Z,3.77
2017-06-20T11:53:40.086Z,4.27
2017-06-20T11:56:14.836Z,4.60
2017-06-20T11:58:48.827Z,4.43
2017-06-20T12:01:23.394Z,3.83
2017-06-20T12:03:58.274Z,3.40
2017-06-20T12:06:32.923Z,3.77
2017-06-20T12:09:07.733Z,3.93
2017-06-20T12:11:41.824Z,4.37
2017-06-20T12:14:15.600Z,3.27
2017-06-20T12:16:49.521Z,3.50
2017-06-20T12:19:24.897Z,3.20
2017-06-20T12:21:59.865Z,3.80
2017-06-20T12:24:33.584Z,3.40
2017-06-20T12:27:07.534Z,6.33
2017-06-20T12:29:41.966Z,4.13
2017-06-20T12:32:15.857Z,3.60
2017-06-20T12:34:49.549Z,3.50
2017-06-20T12:37:23.445Z,3.70
2017-06-20T12:39:57.182Z,3.47
2017-06-20T12:42:31.065Z,3.70
2017-06-20T12:45:04.761Z,3.53
2017-06-20T12:47:38.621Z,4.43
2017-06-20T12:50:12.453Z,3.40
2017-06-20T12:52:46.392Z,5.43
2017-06-20T12:55:21.040Z,5.30
2017-06-20T12:57:55.097Z,3.80
2017-06-20T13:00:29.681Z,3.90
2017-06-20T13:03:03.708Z,3.43
2017-06-20T13:05:37.440Z,3.70
2017-06-20T13:08:12.195Z,4.17
2017-06-20T13:10:46.870Z,5.83
2017-06-20T13:13:20.961Z,3.33
2017-06-20T13:15:55.505Z,3.90
2017-06-20T13:18:29.393Z,3.53
2017-06-20T13:21:03.136Z,3.47
2017-06-20T13:23:37.113Z,3.70
2017-06-20T13:26:10.792Z,4.00
2017-06-20T13:28:44.593Z,3.90
2017-06-20T13:31:18.305Z,4.40
2017-06-20T13:33:52.089Z,4.30
2017-06-20T13:36:27.473Z,4.47
2017-06-20T13:39:01.469Z,4.13
2017-06-20T13:41:35.193Z,4.13
2017-06-20T13:44:09.180Z,3.97
2017-06-20T13:46:43.724Z,3.73
2017-06-20T13:49:17.605Z,3.40
2017-06-20T13:51:51.233Z,4.40
2017-06-20T13:54:24.997Z,3.73
2017-06-20T13:56:59.548Z,5.20
2017-06-20T13:59:33.470Z,5.37
2017-06-20T14:02:07.294Z,3.67
2017-06-20T14:04:41.938Z,5.17
2017-06-20T14:07:15.803Z,4.53
2017-06-20T14:09:50.456Z,4.27
2017-06-20T14:12:24.285Z,4.13
2017-06-20T14:14:59.001Z,3.40
2017-06-20T14:17:32.818Z,4.07
2017-06-20T14:20:08.769Z,3.60
2017-06-20T14:22:42.553Z,3.80
2017-06-20T14:25:16.408Z,3.90
2017-06-20T14:27:50.868Z,10.30
2017-06-20T14:30:24.873Z,3.90
2017-06-20T14:32:59.360Z,3.73
2017-06-20T14:35:33.224Z,4.07
2017-06-20T14:38:07.865Z,5.70
2017-06-20T14:40:42.487Z,3.40
2017-06-20T14:43:16.397Z,3.93
2017-06-20T14:45:50.913Z,3.33
2017-06-20T14:48:24.930Z,3.60
2017-06-20T14:50:59.837Z,3.37
2017-06-20T14:53:34.453Z,3.70
2017-06-20T14:56:08.562Z,3.73
2017-06-20T14:58:42.989Z,5.07
2017-06-20T15:01:16.950Z,4.40
2017-06-20T15:03:51.420Z,4.47
2017-06-20T15:06:25.348Z,3.73
2017-06-20T15:08:59.008Z,3.80
2017-06-20T15:11:32.824Z,4.60
2017-06-20T15:14:06.516Z,3.97
2017-06-20T15:16:41.081Z,3.73
2017-06-20T15:19:14.798Z,3.87
2017-06-20T15:21:49.678Z,3.70
2017-06-20T15:24:24.216Z,3.67
2017-06-20T15:26:58.323Z,4.47
2017-06-20T15:29:32.020Z,3.80
2017-06-20T15:32:06.612Z,3.60
2017-06-20T15:34:41.185Z,3.87
2017-06-20T15:37:15.425Z,3.47
2017-06-20T15:39:49.836Z,3.90
2017-06-20T15:42:24.609Z,4.00
2017-06-20T15:44:58.457Z,3.90
2017-06-20T15:47:32.137Z,3.60
2017-06-20T15:50:05.765Z,3.43
2017-06-20T15:52:39.634Z,4.67
2017-06-20T15:55:14.085Z,4.17
2017-06-20T15:57:49.541Z,4.00
2017-06-20T16:00:23.185Z,3.57
2017-06-20T16:02:57.287Z,3.77
2017-06-20T16:05:31.537Z,3.67
2017-06-20T16:08:06.045Z,4.73
2017-06-20T16:10:39.792Z,4.07
2017-06-20T16:13:13.643Z,3.90
2017-06-20T16:15:47.197Z,3.60
2017-06-20T16:18:22.566Z,4.07
2017-06-20T16:20:57.372Z,4.10
2017-06-20T16:23:31.441Z,3.43
2017-06-20T16:26:05.188Z,4.17
2017-06-20T16:28:38.845Z,4.93
2017-06-20T16:31:13.509Z,3.90
2017-06-20T16:33:47.864Z,4.10
2017-06-20T16:36:22.484Z,3.73
2017-06-20T16:38:56.396Z,3.63
2017-06-20T16:41:30.017Z,4.30
2017-06-20T16:44:04.424Z,8.83
2017-06-20T16:46:38.908Z,7.27
2017-06-20T16:49:13.109Z,3.73
2017-06-20T16:51:47.545Z,4.03
2017-06-20T16:54:21.605Z,4.27
2017-06-20T16:56:56.073Z,5.10
2017-06-20T16:59:30.024Z,5.40
2017-06-20T17:02:04.408Z,4.67
2017-06-20T17:04:38.560Z,3.73
2017-06-20T17:07:13.145Z,4.77
2017-06-20T17:09:46.981Z,4.33
2017-06-20T17:12:21.461Z,4.50
2017-06-20T17:14:55.360Z,4.37
2017-06-20T17:17:29.913Z,5.93
2017-06-20T17:20:04.876Z,4.30
2017-06-20T17:22:39.461Z,4.10
2017-06-20T17:25:13.692Z,4.23
2017-06-20T17:27:48.254Z,5.30
2017-06-20T17:30:22.785Z,16.03
2017-06-20T17:32:56.782Z,4.37
2017-06-20T17:35:30.741Z,5.00
2017-06-20T17:38:04.497Z,4.90
2017-06-20T17:40:39.029Z,4.60
2017-06-20T17:43:13.072Z,4.87
2017-06-20T17:45:46.965Z,5.10
2017-06-20T17:48:20.681Z,4.90
2017-06-20T17:50:54.492Z,4.30
2017-06-20T17:53:28.336Z,5.10
2017-06-20T17:56:02.311Z,4.87
2017-06-20T17:58:35.969Z,4.00
2017-06-20T18:01:10.011Z,6.23
2017-06-20T18:03:43.648Z,5.37
2017-06-20T18:06:18.284Z,6.10
2017-06-20T18:08:52.031Z,4.90
2017-06-20T18:11:25.963Z,4.37
2017-06-20T18:13:59.712Z,5.10
2017-06-20T18:16:33.577Z,6.43
2017-06-20T18:19:07.272Z,7.17
2017-06-20T18:21:40.969Z,5.33
2017-06-20T18:24:14.684Z,4.70
2017-06-20T18:26:48.484Z,6.70
2017-06-20T18:29:22.236Z,10.40
2017-06-20T18:31:56.201Z,18.00
2017-06-20T18:34:33.664Z,12.97
2017-06-20T18:37:07.517Z,16.40
2017-06-20T18:39:41.280Z,10.67
2017-06-20T18:42:14.992Z,6.03
2017-06-20T18:44:49.452Z,14.63
2017-06-20T18:47:23.440Z,6.40
2017-06-20T18:49:57.141Z,6.90
2017-06-20T18:52:30.864Z,6.20
2017-06-20T18:55:04.520Z,6.97
2017-06-20T18:57:38.298Z,12.73
2017-06-20T19:00:12.007Z,7.03
2017-06-20T19:02:45.877Z,5.80
2017-06-20T19:05:19.508Z,6.00
2017-06-20T19:07:53.440Z,6.93
2017-06-20T19:10:27.146Z,5.97
2017-06-20T19:13:00.998Z,8.00
2017-06-20T19:15:34.673Z,6.23
2017-06-20T19:18:08.685Z,5.80
2017-06-20T19:20:42.363Z,6.50
2017-06-20T19:23:16.292Z,8.10
2017-06-20T19:25:50.752Z,7.33
2017-06-20T19:28:24.753Z,9.40
2017-06-20T19:30:59.332Z,7.17
2017-06-20T19:33:33.948Z,7.77
2017-06-20T19:36:07.852Z,6.90
2017-06-20T19:38:41.618Z,7.60
2017-06-20T19:41:15.317Z,7.27
2017-06-20T19:43:49.064Z,8.07
2017-06-20T19:46:23.468Z,6.93
2017-06-20T19:48:57.628Z,7.20
2017-06-20T19:51:32.088Z,8.50
2017-06-20T19:54:06.241Z,7.10
2017-06-20T19:56:39.985Z,7.33
2017-06-20T19:59:13.745Z,8.73
2017-06-20T20:01:48.237Z,7.30
2017-06-20T20:04:22.261Z,7.93
2017-06-20T20:06:56.868Z,7.97
2017-06-20T20:09:30.620Z,8.23
2017-06-20T20:12:04.276Z,8.10
2017-06-20T20:14:38.110Z,7.90
2017-06-20T20:17:11.693Z,8.27
2017-06-20T20:19:45.525Z,7.93
2017-06-20T20:22:19.297Z,10.67
2017-06-20T20:24:53.089Z,10.60
2017-06-20T20:27:26.677Z,9.10
2017-06-20T20:30:00.313Z,8.90
2017-06-20T20:32:34.724Z,8.07
2017-06-20T20:35:08.929Z,9.00
2017-06-20T20:37:43.456Z,8.50
2017-06-20T20:40:17.538Z,8.33
2017-06-20T20:42:51.240Z,8.63
2017-06-20T20:45:24.905Z,9.07
2017-06-20T20:47:59.301Z,9.30
2017-06-20T20:50:34.325Z,9.03
2017-06-20T20:53:08.752Z,9.13
2017-06-20T20:55:42.680Z,8.57
2017-06-20T20:58:17.185Z,9.13
2017-06-20T21:00:51.953Z,9.00
2017-06-20T21:03:25.872Z,8.47
2017-06-20T21:05:59.531Z,9.17
2017-06-20T21:08:33.229Z,9.00
2017-06-20T21:11:07.028Z,8.87
2017-06-20T21:13:40.645Z,9.20
2017-06-20T21:16:14.428Z,8.67
2017-06-20T21:18:48.864Z,8.87
2017-06-20T21:21:23.625Z,10.20
2017-06-20T21:23:57.353Z,9.40
2017-06-20T21:26:31.162Z,9.03
2017-06-20T21:29:04.841Z,9.07
2017-06-20T21:31:38.798Z,9.70
2017-06-20T21:34:13.346Z,9.77
2017-06-20T21:36:47.127Z,9.77
2017-06-20T21:39:21.669Z,9.50
2017-06-20T21:41:55.792Z,8.97
2017-06-20T21:44:30.347Z,9.70
2017-06-20T21:47:03.965Z,9.50
2017-06-20T21:49:37.636Z,8.97
2017-06-20T21:52:12.612Z,10.33
2017-06-20T21:54:46.341Z,9.53
2017-06-20T21:57:20.122Z,11.60
2017-06-20T21:59:53.757Z,9.70
2017-06-20T22:02:27.640Z,10.43
2017-06-20T22:05:02.078Z,9.17
2017-06-20T22:07:35.901Z,9.40
2017-06-20T22:10:10.440Z,10.73
2017-06-20T22:12:44.208Z,9.73
2017-06-20T22:15:18.747Z,10.07
2017-06-20T22:17:53.292Z,8.67
2017-06-20T22:20:27.213Z,9.10
2017-06-20T22:23:02.001Z,9.33
2017-06-20T22:25:35.741Z,9.30
2017-06-20T22:28:09.574Z,9.77
2017-06-20T22:30:44.041Z,9.20
2017-06-20T22:33:17.869Z,9.40
2017-06-20T22:35:52.402Z,9.87
2017-06-20T22:38:26.204Z,9.40
2017-06-20T22:41:01.400Z,8.90
2017-06-20T22:43:36.397Z,10.13
2017-06-20T22:46:10.237Z,9.30
2017-06-20T22:48:43.873Z,8.23
2017-06-20T22:51:17.602Z,8.93
2017-06-20T22:53:53.397Z,8.23
2017-06-20T22:56:27.817Z,8.70
2017-06-20T22:59:01.730Z,9.30
2017-06-20T23:01:37.078Z,8.23
2017-06-20T23:04:11.230Z,8.90
2017-06-20T23:06:45.608Z,9.23
2017-06-20T23:09:19.688Z,8.07
2017-06-20T23:11:54.241Z,8.27
2017-06-20T23:14:29.018Z,8.93
2017-06-20T23:17:03.029Z,8.73
2017-06-20T23:19:36.841Z,8.37
2017-06-20T23:22:10.438Z,8.77
2017-06-20T23:24:44.369Z,10.10
2017-06-20T23:27:18.046Z,9.03
2017-06-20T23:29:52.756Z,8.80
2017-06-20T23:32:26.581Z,9.87
2017-06-20T23:35:00.525Z,9.10
2017-06-20T23:37:34.109Z,9.53
2017-06-20T23:40:07.882Z,9.37
2017-06-20T23:42:42.345Z,9.70
2017-06-20T23:45:17.029Z,8.77
2017-06-20T23:47:50.977Z,9.70
2017-06-20T23:50:26.631Z,8.40
2017-06-20T23:53:00.328Z,9.33
2017-06-20T23:55:34.818Z,8.70
2017-06-20T23:58:08.741Z,10.33
